sensor_id;sensor_type;location;lat;lon;timestamp;temperature;humidity
7708;DHT22;3896;48.758;8.888;2024-03-02T00:00:09;7.50;93.00
7708;DHT22;3896;48.758;8.888;2024-03-02T00:02:45;7.50;93.20
7708;DHT22;3896;48.758;8.888;2024-03-02T00:05:15;7.40;93.20
7708;DHT22;3896;48.758;8.888;2024-03-02T00:07:42;7.40;93.30
7708;DHT22;3896;48.758;8.888;2024-03-02T00:10:10;7.40;93.50
7708;DHT22;3896;48.758;8.888;2024-03-02T00:12:39;7.50;93.70
7708;DHT22;3896;48.758;8.888;2024-03-02T00:17:53;7.40;93.90
7708;DHT22;3896;48.758;8.888;2024-03-02T00:20:21;7.50;93.80
7708;DHT22;3896;48.758;8.888;2024-03-02T00:22:47;7.40;93.90
7708;DHT22;3896;48.758;8.888;2024-03-02T00:25:13;7.40;94.10
7708;DHT22;3896;48.758;8.888;2024-03-02T00:27:38;7.40;94.20
7708;DHT22;3896;48.758;8.888;2024-03-02T00:33:21;7.40;94.00
7708;DHT22;3896;48.758;8.888;2024-03-02T00:35:47;7.40;94.40
7708;DHT22;3896;48.758;8.888;2024-03-02T00:38:14;7.40;94.60
7708;DHT22;3896;48.758;8.888;2024-03-02T00:40:41;7.40;94.70
7708;DHT22;3896;48.758;8.888;2024-03-02T00:45:49;7.40;94.80
7708;DHT22;3896;48.758;8.888;2024-03-02T00:48:15;7.40;94.80
7708;DHT22;3896;48.758;8.888;2024-03-02T00:50:42;7.40;94.90
7708;DHT22;3896;48.758;8.888;2024-03-02T00:53:11;7.40;95.00
7708;DHT22;3896;48.758;8.888;2024-03-02T00:55:37;7.40;95.00
7708;DHT22;3896;48.758;8.888;2024-03-02T00:58:03;7.40;95.20
7708;DHT22;3896;48.758;8.888;2024-03-02T01:00:29;7.40;95.30
7708;DHT22;3896;48.758;8.888;2024-03-02T01:02:54;7.30;95.80
7708;DHT22;3896;48.758;8.888;2024-03-02T01:05:20;7.30;95.90
7708;DHT22;3896;48.758;8.888;2024-03-02T01:07:46;7.30;96.10
7708;DHT22;3896;48.758;8.888;2024-03-02T01:10:12;7.30;96.20
7708;DHT22;3896;48.758;8.888;2024-03-02T01:12:37;7.30;96.20
7708;DHT22;3896;48.758;8.888;2024-03-02T01:15:03;7.30;96.50
7708;DHT22;3896;48.758;8.888;2024-03-02T01:17:31;7.30;96.60
7708;DHT22;3896;48.758;8.888;2024-03-02T01:19:56;7.20;96.40
7708;DHT22;3896;48.758;8.888;2024-03-02T01:22:23;7.20;96.80
7708;DHT22;3896;48.758;8.888;2024-03-02T01:24:51;7.20;96.70
7708;DHT22;3896;48.758;8.888;2024-03-02T01:27:16;7.10;96.90
7708;DHT22;3896;48.758;8.888;2024-03-02T01:29:42;7.10;97.00
7708;DHT22;3896;48.758;8.888;2024-03-02T01:32:07;7.10;97.20
7708;DHT22;3896;48.758;8.888;2024-03-02T01:34:33;7.00;96.90
7708;DHT22;3896;48.758;8.888;2024-03-02T01:36:58;7.00;96.80
7708;DHT22;3896;48.758;8.888;2024-03-02T01:39:24;7.00;97.00
7708;DHT22;3896;48.758;8.888;2024-03-02T01:41:49;7.00;97.00
7708;DHT22;3896;48.758;8.888;2024-03-02T01:44:15;6.90;97.00
7708;DHT22;3896;48.758;8.888;2024-03-02T01:46:40;6.90;96.90
7708;DHT22;3896;48.758;8.888;2024-03-02T01:49:06;6.80;96.80
7708;DHT22;3896;48.758;8.888;2024-03-02T01:51:32;6.80;96.60
7708;DHT22;3896;48.758;8.888;2024-03-02T01:53:57;6.80;96.60
7708;DHT22;3896;48.758;8.888;2024-03-02T01:56:24;6.70;96.40
7708;DHT22;3896;48.758;8.888;2024-03-02T01:58:50;6.70;96.20
7708;DHT22;3896;48.758;8.888;2024-03-02T02:01:15;6.70;96.20
7708;DHT22;3896;48.758;8.888;2024-03-02T02:03:43;6.60;96.10
7708;DHT22;3896;48.758;8.888;2024-03-02T02:06:09;6.60;96.10
7708;DHT22;3896;48.758;8.888;2024-03-02T02:08:37;6.50;96.30
7708;DHT22;3896;48.758;8.888;2024-03-02T02:11:02;6.50;96.10
7708;DHT22;3896;48.758;8.888;2024-03-02T02:13:28;6.40;96.00
7708;DHT22;3896;48.758;8.888;2024-03-02T02:15:53;6.40;96.20
7708;DHT22;3896;48.758;8.888;2024-03-02T02:18:19;6.30;95.60
7708;DHT22;3896;48.758;8.888;2024-03-02T02:20:44;6.30;95.50
7708;DHT22;3896;48.758;8.888;2024-03-02T02:23:10;6.30;95.50
7708;DHT22;3896;48.758;8.888;2024-03-02T02:25:36;6.20;95.50
7708;DHT22;3896;48.758;8.888;2024-03-02T02:28:01;6.20;95.50
7708;DHT22;3896;48.758;8.888;2024-03-02T02:30:31;6.20;95.80
7708;DHT22;3896;48.758;8.888;2024-03-02T02:32:58;6.10;96.00
7708;DHT22;3896;48.758;8.888;2024-03-02T02:35:24;6.10;96.30
7708;DHT22;3896;48.758;8.888;2024-03-02T02:37:50;6.10;96.40
7708;DHT22;3896;48.758;8.888;2024-03-02T02:40:16;6.10;96.30
7708;DHT22;3896;48.758;8.888;2024-03-02T02:42:44;6.10;96.30
7708;DHT22;3896;48.758;8.888;2024-03-02T02:58:06;5.90;96.80
7708;DHT22;3896;48.758;8.888;2024-03-02T03:00:32;5.90;96.70
7708;DHT22;3896;48.758;8.888;2024-03-02T03:02:58;5.90;96.60
7708;DHT22;3896;48.758;8.888;2024-03-02T03:05:23;5.90;96.70
7708;DHT22;3896;48.758;8.888;2024-03-02T03:07:49;5.80;96.70
7708;DHT22;3896;48.758;8.888;2024-03-02T03:10:16;5.80;96.80
7708;DHT22;3896;48.758;8.888;2024-03-02T03:12:42;5.80;96.90
7708;DHT22;3896;48.758;8.888;2024-03-02T03:15:09;5.80;96.60
7708;DHT22;3896;48.758;8.888;2024-03-02T03:17:35;5.70;96.40
7708;DHT22;3896;48.758;8.888;2024-03-02T03:20:01;5.60;96.40
7708;DHT22;3896;48.758;8.888;2024-03-02T03:22:28;5.60;96.40
7708;DHT22;3896;48.758;8.888;2024-03-02T03:24:53;5.50;96.40
7708;DHT22;3896;48.758;8.888;2024-03-02T03:27:19;5.50;96.70
7708;DHT22;3896;48.758;8.888;2024-03-02T03:29:47;5.40;96.90
7708;DHT22;3896;48.758;8.888;2024-03-02T03:32:13;5.40;97.00
7708;DHT22;3896;48.758;8.888;2024-03-02T03:34:38;5.30;97.00
7708;DHT22;3896;48.758;8.888;2024-03-02T03:37:04;5.30;97.10
7708;DHT22;3896;48.758;8.888;2024-03-02T03:39:29;5.20;97.10
7708;DHT22;3896;48.758;8.888;2024-03-02T03:41:55;5.20;97.50
7708;DHT22;3896;48.758;8.888;2024-03-02T03:44:21;5.20;97.20
7708;DHT22;3896;48.758;8.888;2024-03-02T03:46:46;5.10;97.30
7708;DHT22;3896;48.758;8.888;2024-03-02T03:49:12;5.10;97.30
7708;DHT22;3896;48.758;8.888;2024-03-02T03:51:37;5.00;97.30
7708;DHT22;3896;48.758;8.888;2024-03-02T03:54:03;5.00;97.40
7708;DHT22;3896;48.758;8.888;2024-03-02T03:56:28;4.90;97.30
7708;DHT22;3896;48.758;8.888;2024-03-02T03:58:54;4.90;97.30
7708;DHT22;3896;48.758;8.888;2024-03-02T04:01:19;4.80;97.30
7708;DHT22;3896;48.758;8.888;2024-03-02T04:03:45;4.80;97.30
7708;DHT22;3896;48.758;8.888;2024-03-02T04:06:10;4.80;97.20
7708;DHT22;3896;48.758;8.888;2024-03-02T04:08:36;4.70;97.20
7708;DHT22;3896;48.758;8.888;2024-03-02T04:11:01;4.60;97.60
7708;DHT22;3896;48.758;8.888;2024-03-02T04:13:28;4.70;97.40
7708;DHT22;3896;48.758;8.888;2024-03-02T04:15:53;4.60;97.70
7708;DHT22;3896;48.758;8.888;2024-03-02T04:18:19;4.60;98.10
7708;DHT22;3896;48.758;8.888;2024-03-02T04:20:44;4.60;98.30
7708;DHT22;3896;48.758;8.888;2024-03-02T04:23:10;4.60;98.70
7708;DHT22;3896;48.758;8.888;2024-03-02T04:25:35;4.60;98.80
7708;DHT22;3896;48.758;8.888;2024-03-02T04:28:01;4.50;98.80
7708;DHT22;3896;48.758;8.888;2024-03-02T04:30:27;4.50;98.50
7708;DHT22;3896;48.758;8.888;2024-03-02T04:32:52;4.50;98.40
7708;DHT22;3896;48.758;8.888;2024-03-02T04:35:18;4.40;98.10
7708;DHT22;3896;48.758;8.888;2024-03-02T04:37:43;4.40;97.90
7708;DHT22;3896;48.758;8.888;2024-03-02T04:40:09;4.40;97.90
7708;DHT22;3896;48.758;8.888;2024-03-02T04:42:35;4.30;97.90
7708;DHT22;3896;48.758;8.888;2024-03-02T04:45:01;4.30;98.00
7708;DHT22;3896;48.758;8.888;2024-03-02T04:47:27;4.20;97.90
7708;DHT22;3896;48.758;8.888;2024-03-02T04:49:53;4.20;98.00
7708;DHT22;3896;48.758;8.888;2024-03-02T04:52:18;4.20;97.70
7708;DHT22;3896;48.758;8.888;2024-03-02T04:54:44;4.20;97.90
7708;DHT22;3896;48.758;8.888;2024-03-02T04:57:28;4.10;98.10
7708;DHT22;3896;48.758;8.888;2024-03-02T04:59:54;4.10;98.40
7708;DHT22;3896;48.758;8.888;2024-03-02T05:02:19;4.10;98.70
7708;DHT22;3896;48.758;8.888;2024-03-02T05:04:45;4.10;99.00
7708;DHT22;3896;48.758;8.888;2024-03-02T05:07:10;4.00;98.80
7708;DHT22;3896;48.758;8.888;2024-03-02T05:09:36;4.00;99.00
7708;DHT22;3896;48.758;8.888;2024-03-02T05:12:01;4.00;99.30
7708;DHT22;3896;48.758;8.888;2024-03-02T05:14:30;4.00;99.20
7708;DHT22;3896;48.758;8.888;2024-03-02T05:16:55;4.00;99.30
7708;DHT22;3896;48.758;8.888;2024-03-02T05:19:21;4.00;99.10
7708;DHT22;3896;48.758;8.888;2024-03-02T05:21:46;4.00;98.90
7708;DHT22;3896;48.758;8.888;2024-03-02T05:24:12;4.00;98.70
7708;DHT22;3896;48.758;8.888;2024-03-02T05:26:37;4.00;98.80
7708;DHT22;3896;48.758;8.888;2024-03-02T05:29:03;4.00;99.10
7708;DHT22;3896;48.758;8.888;2024-03-02T05:31:28;4.00;99.60
7708;DHT22;3896;48.758;8.888;2024-03-02T05:33:54;3.90;99.90
7708;DHT22;3896;48.758;8.888;2024-03-02T05:36:19;3.90;99.90
7708;DHT22;3896;48.758;8.888;2024-03-02T05:38:46;3.90;99.90
7708;DHT22;3896;48.758;8.888;2024-03-02T05:41:11;3.90;99.90
7708;DHT22;3896;48.758;8.888;2024-03-02T05:43:37;3.90;99.90
7708;DHT22;3896;48.758;8.888;2024-03-02T05:46:03;3.90;99.90
7708;DHT22;3896;48.758;8.888;2024-03-02T05:48:28;3.80;99.90
7708;DHT22;3896;48.758;8.888;2024-03-02T05:50:54;3.80;99.90
7708;DHT22;3896;48.758;8.888;2024-03-02T05:53:19;3.80;99.90
7708;DHT22;3896;48.758;8.888;2024-03-02T05:55:45;3.80;99.90
7708;DHT22;3896;48.758;8.888;2024-03-02T05:58:10;3.70;99.90
7708;DHT22;3896;48.758;8.888;2024-03-02T06:01:02;3.70;99.90
7708;DHT22;3896;48.758;8.888;2024-03-02T06:03:28;3.70;99.90
7708;DHT22;3896;48.758;8.888;2024-03-02T06:05:54;3.70;99.90
7708;DHT22;3896;48.758;8.888;2024-03-02T06:08:20;3.70;99.90
7708;DHT22;3896;48.758;8.888;2024-03-02T06:10:45;3.70;99.90
7708;DHT22;3896;48.758;8.888;2024-03-02T06:13:11;3.70;99.90
7708;DHT22;3896;48.758;8.888;2024-03-02T06:15:37;3.70;99.90
7708;DHT22;3896;48.758;8.888;2024-03-02T06:18:03;3.70;99.90
7708;DHT22;3896;48.758;8.888;2024-03-02T06:20:28;4.00;99.90
7708;DHT22;3896;48.758;8.888;2024-03-02T06:22:56;3.90;99.90
7708;DHT22;3896;48.758;8.888;2024-03-02T06:25:22;3.90;99.90
7708;DHT22;3896;48.758;8.888;2024-03-02T06:27:47;3.80;99.90
7708;DHT22;3896;48.758;8.888;2024-03-02T06:30:13;3.80;99.90
7708;DHT22;3896;48.758;8.888;2024-03-02T06:32:38;3.80;99.90
7708;DHT22;3896;48.758;8.888;2024-03-02T06:35:04;3.80;99.90
7708;DHT22;3896;48.758;8.888;2024-03-02T06:37:32;3.80;99.90
7708;DHT22;3896;48.758;8.888;2024-03-02T06:39:57;3.80;99.90
7708;DHT22;3896;48.758;8.888;2024-03-02T06:42:23;3.70;99.90
7708;DHT22;3896;48.758;8.888;2024-03-02T06:44:49;3.80;99.90
7708;DHT22;3896;48.758;8.888;2024-03-02T06:47:15;3.80;99.90
7708;DHT22;3896;48.758;8.888;2024-03-02T06:49:42;3.80;99.90
7708;DHT22;3896;48.758;8.888;2024-03-02T06:52:07;3.80;99.90
7708;DHT22;3896;48.758;8.888;2024-03-02T06:54:33;3.80;99.90
7708;DHT22;3896;48.758;8.888;2024-03-02T06:57:00;3.80;99.90
7708;DHT22;3896;48.758;8.888;2024-03-02T06:59:25;3.80;99.90
7708;DHT22;3896;48.758;8.888;2024-03-02T07:01:51;3.80;99.90
7708;DHT22;3896;48.758;8.888;2024-03-02T07:04:16;3.90;99.90
7708;DHT22;3896;48.758;8.888;2024-03-02T07:06:42;3.90;99.90
7708;DHT22;3896;48.758;8.888;2024-03-02T07:09:07;3.90;99.90
7708;DHT22;3896;48.758;8.888;2024-03-02T07:11:36;4.00;99.90
7708;DHT22;3896;48.758;8.888;2024-03-02T07:14:01;4.00;99.90
7708;DHT22;3896;48.758;8.888;2024-03-02T07:16:27;4.00;99.90
7708;DHT22;3896;48.758;8.888;2024-03-02T07:18:58;4.10;99.90
7708;DHT22;3896;48.758;8.888;2024-03-02T07:21:24;4.10;99.90
7708;DHT22;3896;48.758;8.888;2024-03-02T07:23:50;4.10;99.90
7708;DHT22;3896;48.758;8.888;2024-03-02T07:26:16;4.20;99.90
7708;DHT22;3896;48.758;8.888;2024-03-02T07:28:44;4.20;99.90
7708;DHT22;3896;48.758;8.888;2024-03-02T07:31:10;4.20;99.90
7708;DHT22;3896;48.758;8.888;2024-03-02T07:33:36;4.30;99.90
7708;DHT22;3896;48.758;8.888;2024-03-02T07:36:02;4.30;99.90
7708;DHT22;3896;48.758;8.888;2024-03-02T07:38:31;4.30;99.90
7708;DHT22;3896;48.758;8.888;2024-03-02T07:40:57;4.40;99.90
7708;DHT22;3896;48.758;8.888;2024-03-02T07:43:23;4.40;99.90
7708;DHT22;3896;48.758;8.888;2024-03-02T07:45:49;4.40;99.90
7708;DHT22;3896;48.758;8.888;2024-03-02T07:48:14;4.40;99.90
7708;DHT22;3896;48.758;8.888;2024-03-02T07:50:40;4.50;99.90
7708;DHT22;3896;48.758;8.888;2024-03-02T07:53:06;4.50;99.90
7708;DHT22;3896;48.758;8.888;2024-03-02T07:55:33;4.50;99.90
7708;DHT22;3896;48.758;8.888;2024-03-02T07:57:58;4.60;99.90
7708;DHT22;3896;48.758;8.888;2024-03-02T08:00:24;4.60;99.90
7708;DHT22;3896;48.758;8.888;2024-03-02T08:02:51;4.70;99.90
7708;DHT22;3896;48.758;8.888;2024-03-02T08:05:17;4.70;99.90
7708;DHT22;3896;48.758;8.888;2024-03-02T08:07:45;4.80;99.90
7708;DHT22;3896;48.758;8.888;2024-03-02T08:10:11;4.90;99.90
7708;DHT22;3896;48.758;8.888;2024-03-02T08:12:36;5.00;99.90
7708;DHT22;3896;48.758;8.888;2024-03-02T08:15:02;5.10;99.90
7708;DHT22;3896;48.758;8.888;2024-03-02T08:17:27;5.10;99.90
7708;DHT22;3896;48.758;8.888;2024-03-02T08:19:53;5.30;99.90
7708;DHT22;3896;48.758;8.888;2024-03-02T08:22:19;5.40;99.90
7708;DHT22;3896;48.758;8.888;2024-03-02T08:24:45;5.50;99.90
7708;DHT22;3896;48.758;8.888;2024-03-02T08:27:11;5.60;99.90
7708;DHT22;3896;48.758;8.888;2024-03-02T08:29:37;5.80;99.90
7708;DHT22;3896;48.758;8.888;2024-03-02T08:32:03;5.90;99.90
7708;DHT22;3896;48.758;8.888;2024-03-02T08:34:28;6.10;99.90
7708;DHT22;3896;48.758;8.888;2024-03-02T08:36:54;6.20;99.90
7708;DHT22;3896;48.758;8.888;2024-03-02T08:39:20;6.40;99.90
7708;DHT22;3896;48.758;8.888;2024-03-02T08:41:46;6.50;99.90
7708;DHT22;3896;48.758;8.888;2024-03-02T08:44:13;6.70;99.90
7708;DHT22;3896;48.758;8.888;2024-03-02T08:46:39;6.80;99.90
7708;DHT22;3896;48.758;8.888;2024-03-02T08:49:05;7.00;99.90
7708;DHT22;3896;48.758;8.888;2024-03-02T08:51:31;7.20;99.90
7708;DHT22;3896;48.758;8.888;2024-03-02T08:53:57;7.40;99.90
7708;DHT22;3896;48.758;8.888;2024-03-02T08:56:26;7.60;99.90
7708;DHT22;3896;48.758;8.888;2024-03-02T08:58:52;7.70;99.90
7708;DHT22;3896;48.758;8.888;2024-03-02T09:01:18;7.90;99.90
7708;DHT22;3896;48.758;8.888;2024-03-02T09:03:45;8.10;99.90
7708;DHT22;3896;48.758;8.888;2024-03-02T09:06:12;8.20;99.90
7708;DHT22;3896;48.758;8.888;2024-03-02T09:08:38;8.40;99.90
7708;DHT22;3896;48.758;8.888;2024-03-02T09:11:04;8.50;99.90
7708;DHT22;3896;48.758;8.888;2024-03-02T09:13:31;8.70;99.90
7708;DHT22;3896;48.758;8.888;2024-03-02T09:15:56;8.90;99.90
7708;DHT22;3896;48.758;8.888;2024-03-02T09:18:22;9.00;99.90
7708;DHT22;3896;48.758;8.888;2024-03-02T09:20:47;9.10;99.90
7708;DHT22;3896;48.758;8.888;2024-03-02T09:23:13;9.30;99.90
7708;DHT22;3896;48.758;8.888;2024-03-02T09:25:38;9.50;99.90
7708;DHT22;3896;48.758;8.888;2024-03-02T09:28:04;9.60;99.90
7708;DHT22;3896;48.758;8.888;2024-03-02T09:30:30;9.80;99.90
7708;DHT22;3896;48.758;8.888;2024-03-02T09:32:56;10.00;99.90
7708;DHT22;3896;48.758;8.888;2024-03-02T09:35:21;10.10;99.90
7708;DHT22;3896;48.758;8.888;2024-03-02T09:37:47;10.30;99.90
7708;DHT22;3896;48.758;8.888;2024-03-02T09:40:13;10.50;99.90
7708;DHT22;3896;48.758;8.888;2024-03-02T09:42:40;10.70;99.60
7708;DHT22;3896;48.758;8.888;2024-03-02T09:45:08;10.90;98.60
7708;DHT22;3896;48.758;8.888;2024-03-02T09:47:34;11.10;97.40
7708;DHT22;3896;48.758;8.888;2024-03-02T09:49:59;11.20;96.30
7708;DHT22;3896;48.758;8.888;2024-03-02T09:52:25;11.30;95.60
7708;DHT22;3896;48.758;8.888;2024-03-02T09:54:51;11.40;94.80
7708;DHT22;3896;48.758;8.888;2024-03-02T09:57:17;11.60;94.30
7708;DHT22;3896;48.758;8.888;2024-03-02T09:59:42;11.70;93.40
7708;DHT22;3896;48.758;8.888;2024-03-02T10:02:08;11.80;92.90
7708;DHT22;3896;48.758;8.888;2024-03-02T10:04:34;11.90;92.40
7708;DHT22;3896;48.758;8.888;2024-03-02T10:07:18;12.10;92.10
7708;DHT22;3896;48.758;8.888;2024-03-02T10:09:48;12.20;91.80
7708;DHT22;3896;48.758;8.888;2024-03-02T10:12:15;12.40;91.00
7708;DHT22;3896;48.758;8.888;2024-03-02T10:14:41;12.60;90.60
7708;DHT22;3896;48.758;8.888;2024-03-02T10:17:09;12.70;89.00
7708;DHT22;3896;48.758;8.888;2024-03-02T10:19:35;12.90;88.30
7708;DHT22;3896;48.758;8.888;2024-03-02T10:22:03;13.00;87.60
7708;DHT22;3896;48.758;8.888;2024-03-02T10:24:40;13.20;86.60
7708;DHT22;3896;48.758;8.888;2024-03-02T10:27:10;13.30;85.20
7708;DHT22;3896;48.758;8.888;2024-03-02T10:29:40;13.40;83.60
7708;DHT22;3896;48.758;8.888;2024-03-02T10:32:08;13.50;82.40
7708;DHT22;3896;48.758;8.888;2024-03-02T10:34:35;13.70;81.60
7708;DHT22;3896;48.758;8.888;2024-03-02T10:37:01;13.80;79.80
7708;DHT22;3896;48.758;8.888;2024-03-02T10:39:26;13.90;79.00
7708;DHT22;3896;48.758;8.888;2024-03-02T10:41:53;14.10;78.20
7708;DHT22;3896;48.758;8.888;2024-03-02T10:44:22;14.20;77.20
7708;DHT22;3896;48.758;8.888;2024-03-02T10:46:49;14.40;76.90
7708;DHT22;3896;48.758;8.888;2024-03-02T10:49:16;14.50;75.80
7708;DHT22;3896;48.758;8.888;2024-03-02T10:51:43;14.60;73.80
7708;DHT22;3896;48.758;8.888;2024-03-02T10:54:08;14.70;72.90
7708;DHT22;3896;48.758;8.888;2024-03-02T10:56:42;14.80;71.80
7708;DHT22;3896;48.758;8.888;2024-03-02T10:59:24;14.90;71.30
7708;DHT22;3896;48.758;8.888;2024-03-02T11:01:55;15.10;69.90
7708;DHT22;3896;48.758;8.888;2024-03-02T11:04:21;15.20;69.30
7708;DHT22;3896;48.758;8.888;2024-03-02T11:06:50;15.30;68.80
7708;DHT22;3896;48.758;8.888;2024-03-02T11:09:19;15.40;68.10
7708;DHT22;3896;48.758;8.888;2024-03-02T11:11:49;15.50;67.00
7708;DHT22;3896;48.758;8.888;2024-03-02T11:14:21;15.70;67.40
7708;DHT22;3896;48.758;8.888;2024-03-02T11:16:49;15.80;66.20
7708;DHT22;3896;48.758;8.888;2024-03-02T11:19:15;15.90;65.80
7708;DHT22;3896;48.758;8.888;2024-03-02T11:21:41;16.00;65.30
7708;DHT22;3896;48.758;8.888;2024-03-02T11:24:28;16.10;65.20
7708;DHT22;3896;48.758;8.888;2024-03-02T11:26:58;16.20;64.30
7708;DHT22;3896;48.758;8.888;2024-03-02T11:29:47;16.30;63.70
7708;DHT22;3896;48.758;8.888;2024-03-02T11:32:21;16.50;63.10
7708;DHT22;3896;48.758;8.888;2024-03-02T11:34:50;16.60;61.60
7708;DHT22;3896;48.758;8.888;2024-03-02T11:37:17;16.70;61.10
7708;DHT22;3896;48.758;8.888;2024-03-02T11:39:44;16.90;60.00
7708;DHT22;3896;48.758;8.888;2024-03-02T11:42:11;17.00;59.70
7708;DHT22;3896;48.758;8.888;2024-03-02T11:44:40;17.10;59.60
7708;DHT22;3896;48.758;8.888;2024-03-02T11:47:08;17.10;58.90
7708;DHT22;3896;48.758;8.888;2024-03-02T11:49:44;17.30;58.80
7708;DHT22;3896;48.758;8.888;2024-03-02T11:52:12;17.30;58.90
7708;DHT22;3896;48.758;8.888;2024-03-02T11:54:40;17.40;58.20
7708;DHT22;3896;48.758;8.888;2024-03-02T11:57:07;17.50;57.80
7708;DHT22;3896;48.758;8.888;2024-03-02T11:59:33;17.60;57.20
7708;DHT22;3896;48.758;8.888;2024-03-02T12:01:59;17.70;57.10
7708;DHT22;3896;48.758;8.888;2024-03-02T12:04:25;17.80;57.50
7708;DHT22;3896;48.758;8.888;2024-03-02T12:06:59;17.90;57.50
7708;DHT22;3896;48.758;8.888;2024-03-02T12:09:28;18.00;56.90
7708;DHT22;3896;48.758;8.888;2024-03-02T12:12:07;18.20;55.90
7708;DHT22;3896;48.758;8.888;2024-03-02T12:14:35;18.20;55.60
7708;DHT22;3896;48.758;8.888;2024-03-02T12:17:01;18.40;54.90
7708;DHT22;3896;48.758;8.888;2024-03-02T12:19:28;18.50;55.10
7708;DHT22;3896;48.758;8.888;2024-03-02T12:21:56;18.60;55.30
7708;DHT22;3896;48.758;8.888;2024-03-02T12:24:22;18.80;54.80
7708;DHT22;3896;48.758;8.888;2024-03-02T12:26:49;18.90;54.70
7708;DHT22;3896;48.758;8.888;2024-03-02T12:29:15;19.10;53.90
7708;DHT22;3896;48.758;8.888;2024-03-02T12:31:41;19.20;52.80
7708;DHT22;3896;48.758;8.888;2024-03-02T12:34:07;19.30;51.80
7708;DHT22;3896;48.758;8.888;2024-03-02T12:36:39;19.50;52.00
7708;DHT22;3896;48.758;8.888;2024-03-02T12:39:10;19.60;51.70
7708;DHT22;3896;48.758;8.888;2024-03-02T12:41:39;19.70;51.30
7708;DHT22;3896;48.758;8.888;2024-03-02T12:44:05;19.80;51.20
7708;DHT22;3896;48.758;8.888;2024-03-02T12:46:34;20.00;51.20
7708;DHT22;3896;48.758;8.888;2024-03-02T12:49:12;20.20;50.50
7708;DHT22;3896;48.758;8.888;2024-03-02T12:51:39;20.30;50.50
7708;DHT22;3896;48.758;8.888;2024-03-02T12:54:09;20.40;50.30
7708;DHT22;3896;48.758;8.888;2024-03-02T12:56:35;20.60;50.30
7708;DHT22;3896;48.758;8.888;2024-03-02T12:59:01;20.80;49.80
7708;DHT22;3896;48.758;8.888;2024-03-02T13:01:27;21.10;49.50
7708;DHT22;3896;48.758;8.888;2024-03-02T13:03:53;21.20;49.10
7708;DHT22;3896;48.758;8.888;2024-03-02T13:06:21;21.30;49.00
7708;DHT22;3896;48.758;8.888;2024-03-02T13:08:47;21.40;48.80
7708;DHT22;3896;48.758;8.888;2024-03-02T13:11:13;21.50;48.80
7708;DHT22;3896;48.758;8.888;2024-03-02T13:13:39;21.70;48.20
7708;DHT22;3896;48.758;8.888;2024-03-02T13:16:09;21.80;47.40
7708;DHT22;3896;48.758;8.888;2024-03-02T13:18:39;21.90;47.20
7708;DHT22;3896;48.758;8.888;2024-03-02T13:21:05;22.00;46.50
7708;DHT22;3896;48.758;8.888;2024-03-02T13:23:30;22.10;45.80
7708;DHT22;3896;48.758;8.888;2024-03-02T13:25:57;22.00;46.40
7708;DHT22;3896;48.758;8.888;2024-03-02T13:28:26;22.10;45.90
7708;DHT22;3896;48.758;8.888;2024-03-02T13:30:52;22.10;45.10
7708;DHT22;3896;48.758;8.888;2024-03-02T13:33:18;22.10;45.30
7708;DHT22;3896;48.758;8.888;2024-03-02T13:35:50;22.00;45.60
7708;DHT22;3896;48.758;8.888;2024-03-02T13:38:19;22.00;45.20
7708;DHT22;3896;48.758;8.888;2024-03-02T13:40:46;22.00;44.80
7708;DHT22;3896;48.758;8.888;2024-03-02T13:43:12;21.90;44.70
7708;DHT22;3896;48.758;8.888;2024-03-02T13:45:38;21.90;44.80
7708;DHT22;3896;48.758;8.888;2024-03-02T13:48:04;21.90;45.00
7708;DHT22;3896;48.758;8.888;2024-03-02T13:50:30;21.80;45.10
7708;DHT22;3896;48.758;8.888;2024-03-02T13:52:56;21.80;45.00
7708;DHT22;3896;48.758;8.888;2024-03-02T13:55:22;21.80;44.90
7708;DHT22;3896;48.758;8.888;2024-03-02T13:57:47;21.80;45.20
7708;DHT22;3896;48.758;8.888;2024-03-02T14:00:15;21.70;44.70
7708;DHT22;3896;48.758;8.888;2024-03-02T14:02:41;21.60;44.30
7708;DHT22;3896;48.758;8.888;2024-03-02T14:05:07;21.60;44.10
7708;DHT22;3896;48.758;8.888;2024-03-02T14:07:37;21.50;44.00
7708;DHT22;3896;48.758;8.888;2024-03-02T14:10:03;21.50;44.50
7708;DHT22;3896;48.758;8.888;2024-03-02T14:12:29;21.60;44.80
7708;DHT22;3896;48.758;8.888;2024-03-02T14:14:54;21.70;44.60
7708;DHT22;3896;48.758;8.888;2024-03-02T14:17:24;21.80;44.90
7708;DHT22;3896;48.758;8.888;2024-03-02T14:19:49;21.90;44.80
7708;DHT22;3896;48.758;8.888;2024-03-02T14:22:15;22.10;44.80
7708;DHT22;3896;48.758;8.888;2024-03-02T14:24:43;22.20;44.90
7708;DHT22;3896;48.758;8.888;2024-03-02T14:27:08;22.30;44.60
7708;DHT22;3896;48.758;8.888;2024-03-02T14:29:34;22.50;44.40
7708;DHT22;3896;48.758;8.888;2024-03-02T14:32:03;22.70;44.20
7708;DHT22;3896;48.758;8.888;2024-03-02T14:34:29;22.90;43.60
7708;DHT22;3896;48.758;8.888;2024-03-02T14:36:54;23.00;43.30
7708;DHT22;3896;48.758;8.888;2024-03-02T14:39:20;23.10;43.00
7708;DHT22;3896;48.758;8.888;2024-03-02T14:41:46;23.20;43.30
7708;DHT22;3896;48.758;8.888;2024-03-02T14:44:12;23.40;43.00
7708;DHT22;3896;48.758;8.888;2024-03-02T14:46:38;23.50;42.10
7708;DHT22;3896;48.758;8.888;2024-03-02T14:49:04;23.60;41.70
7708;DHT22;3896;48.758;8.888;2024-03-02T14:51:29;23.70;41.80
7708;DHT22;3896;48.758;8.888;2024-03-02T14:53:55;23.70;41.80
7708;DHT22;3896;48.758;8.888;2024-03-02T14:56:21;23.80;41.70
7708;DHT22;3896;48.758;8.888;2024-03-02T14:58:46;23.90;41.50
7708;DHT22;3896;48.758;8.888;2024-03-02T15:01:12;24.00;41.30
7708;DHT22;3896;48.758;8.888;2024-03-02T15:03:38;24.10;41.40
7708;DHT22;3896;48.758;8.888;2024-03-02T15:06:04;24.00;41.30
7708;DHT22;3896;48.758;8.888;2024-03-02T15:08:30;24.00;41.30
7708;DHT22;3896;48.758;8.888;2024-03-02T15:10:56;24.00;41.00
7708;DHT22;3896;48.758;8.888;2024-03-02T15:13:23;23.80;40.80
7708;DHT22;3896;48.758;8.888;2024-03-02T15:15:50;23.70;41.80
7708;DHT22;3896;48.758;8.888;2024-03-02T15:18:16;23.50;42.10
7708;DHT22;3896;48.758;8.888;2024-03-02T15:20:41;23.40;42.00
7708;DHT22;3896;48.758;8.888;2024-03-02T15:23:07;23.20;42.20
7708;DHT22;3896;48.758;8.888;2024-03-02T15:25:32;23.10;42.60
7708;DHT22;3896;48.758;8.888;2024-03-02T15:27:58;22.90;42.90
7708;DHT22;3896;48.758;8.888;2024-03-02T15:30:24;22.70;42.90
7708;DHT22;3896;48.758;8.888;2024-03-02T15:32:49;22.60;43.40
7708;DHT22;3896;48.758;8.888;2024-03-02T15:35:15;22.50;44.20
7708;DHT22;3896;48.758;8.888;2024-03-02T15:37:40;22.30;44.90
7708;DHT22;3896;48.758;8.888;2024-03-02T15:40:06;22.10;45.60
7708;DHT22;3896;48.758;8.888;2024-03-02T15:42:34;22.00;46.20
7708;DHT22;3896;48.758;8.888;2024-03-02T15:44:59;21.80;46.70
7708;DHT22;3896;48.758;8.888;2024-03-02T15:47:25;21.70;47.20
7708;DHT22;3896;48.758;8.888;2024-03-02T15:49:51;21.60;47.60
7708;DHT22;3896;48.758;8.888;2024-03-02T15:52:16;21.50;47.90
7708;DHT22;3896;48.758;8.888;2024-03-02T15:54:44;21.30;48.00
7708;DHT22;3896;48.758;8.888;2024-03-02T15:57:10;21.20;48.10
7708;DHT22;3896;48.758;8.888;2024-03-02T15:59:36;21.10;48.30
7708;DHT22;3896;48.758;8.888;2024-03-02T16:02:02;20.90;48.50
7708;DHT22;3896;48.758;8.888;2024-03-02T16:04:29;20.70;49.00
7708;DHT22;3896;48.758;8.888;2024-03-02T16:06:54;20.60;49.50
7708;DHT22;3896;48.758;8.888;2024-03-02T16:09:20;20.50;50.10
7708;DHT22;3896;48.758;8.888;2024-03-02T16:11:45;20.40;50.60
7708;DHT22;3896;48.758;8.888;2024-03-02T16:14:13;20.30;51.00
7708;DHT22;3896;48.758;8.888;2024-03-02T16:16:39;20.10;51.10
7708;DHT22;3896;48.758;8.888;2024-03-02T16:19:05;20.00;50.40
7708;DHT22;3896;48.758;8.888;2024-03-02T16:21:30;19.90;50.50
7708;DHT22;3896;48.758;8.888;2024-03-02T16:23:56;19.80;51.00
7708;DHT22;3896;48.758;8.888;2024-03-02T16:26:23;19.60;51.20
7708;DHT22;3896;48.758;8.888;2024-03-02T16:28:49;19.50;51.40